Mengibar, Spain
Current Conditions -  °F | °C
As of 2:30 PM on Friday 19 Dec 2014 (Local Time) from LEGR Reporting Station
Clear Clear  
Wind Chill: 64°   Ceiling: Unl
Heat Index: 64°   Visibility: 6mi
Dew Point: 43°   Wind: 0mph
Humidity: 45%   Direction: NA
Pressure: 30.39"   Gusts: NA
Location:  37.97°N, 3.81°W
Report Text: LEGR 191330Z 00000KT CAVOK 18/06 Q1029
Loading
Personal Weather Stations






























Interactive Weather Map New forecast layout! Learn more

10-Day Weather Forecast

Advertisements
Track Severe Weather on mobile